Time;durP1;ratioP1;P1;durP2;ratioP2;P2;SDS_P1;SDS_P2;PMS_P1;PMS_P2;Temp;Humidity;BMP_temperature;BMP_pressure;BME280_temperature;BME280_humidity;BME280_pressure;Samples;Min_cycle;Max_cycle;Signal;HPM_P1;HPM_P2
2022/03/30 00:00:06;;;;;;;8.38;4.43;;;;;;;13.11;73.96;101121.44;2112010;28;20038;-79
2022/03/30 00:01:34;;;;;;;11.25;4.30;;;;;;;13.10;74.12;101111.69;2104620;28;20484;-79
2022/03/30 00:02:57;;;;;;;9.73;4.43;;;;;;;13.08;74.27;101111.66;2098698;28;20496;-78
2022/03/30 00:04:19;;;;;;;10.35;3.78;;;;;;;13.08;74.42;101113.44;2109095;27;20512;-79
2022/03/30 00:05:42;;;;;;;7.80;3.25;;;;;;;13.06;74.61;101112.56;2106450;28;20066;-79
2022/03/30 00:07:05;;;;;;;7.65;4.20;;;;;;;13.06;74.70;101116.06;2110807;28;20075;-79
2022/03/30 00:08:26;;;;;;;7.18;3.70;;;;;;;13.06;74.81;101121.34;2110764;28;20064;-79
2022/03/30 00:09:51;;;;;;;8.95;4.05;;;;;;;13.06;74.75;101108.09;2112124;28;20143;-79
2022/03/30 00:11:12;;;;;;;6.85;3.60;;;;;;;13.07;74.80;101109.00;2101143;28;20051;-78
2022/03/30 00:12:36;;;;;;;7.53;3.65;;;;;;;13.07;74.85;101103.69;2101175;28;20059;-78
2022/03/30 00:13:59;;;;;;;6.28;3.00;;;;;;;13.07;75.01;101114.31;2115703;27;20084;-79
2022/03/30 00:15:22;;;;;;;11.40;4.30;;;;;;;13.06;74.95;101108.09;2103439;28;20047;-78
2022/03/30 00:16:44;;;;;;;8.63;3.40;;;;;;;13.08;75.03;101108.13;2111879;28;20046;-79
2022/03/30 00:18:06;;;;;;;8.27;3.90;;;;;;;13.07;75.04;101104.59;2109855;28;20042;-79
2022/03/30 00:19:28;;;;;;;6.22;3.83;;;;;;;13.08;75.01;101102.84;2096889;28;20050;-78
2022/03/30 00:20:50;;;;;;;9.25;4.38;;;;;;;13.09;75.16;101116.09;2100821;28;20142;-78
2022/03/30 00:22:13;;;;;;;6.40;3.30;;;;;;;13.10;75.27;101109.94;2107763;28;20086;-79
2022/03/30 00:23:36;;;;;;;10.70;3.92;;;;;;;13.11;75.34;101110.84;2111469;27;20043;-78
2022/03/30 00:24:58;;;;;;;6.70;4.05;;;;;;;13.11;75.46;101106.41;2106026;28;20047;-79
2022/03/30 00:26:21;;;;;;;6.28;3.80;;;;;;;13.15;75.59;101112.66;2095013;28;20040;-78
2022/03/30 00:27:46;;;;;;;9.48;5.13;;;;;;;13.19;75.57;101116.25;2103056;28;20049;-78
2022/03/30 00:29:09;;;;;;;8.95;3.90;;;;;;;13.17;75.43;101116.22;2106038;28;20039;-78
2022/03/30 00:30:31;;;;;;;10.88;3.85;;;;;;;13.19;75.41;101119.78;2105956;28;20036;-78
2022/03/30 00:31:53;;;;;;;;;;;;;;;13.21;75.33;101118.03;2103351;28;20052;-78
2022/03/30 00:33:17;;;;;;;8.73;4.03;;;;;;;13.18;75.37;101118.00;2108415;28;20042;-78
2022/03/30 00:34:40;;;;;;;11.70;5.20;;;;;;;13.18;75.48;101127.72;2105825;28;20044;-78
2022/03/30 00:36:02;;;;;;;10.68;3.60;;;;;;;13.18;75.38;101118.00;2094815;28;20059;-78
2022/03/30 00:37:25;;;;;;;7.78;3.83;;;;;;;13.18;75.21;101115.38;2092259;28;20156;-78
2022/03/30 00:38:48;;;;;;;9.25;3.38;;;;;;;13.18;75.07;101110.06;2105791;28;20486;-77
2022/03/30 00:40:12;;;;;;;11.43;4.15;;;;;;;13.19;75.08;101109.19;2111618;28;20125;-78
2022/03/30 00:41:35;;;;;;;8.75;3.78;;;;;;;13.16;75.02;101112.69;2103511;28;20073;-78
2022/03/30 00:42:59;;;;;;;9.43;4.18;;;;;;;13.15;75.01;101108.25;2107165;28;20582;-78
2022/03/30 00:44:22;;;;;;;6.07;3.20;;;;;;;13.11;74.97;101106.41;2107154;28;20044;-78
2022/03/30 00:45:45;;;;;;;9.70;4.53;;;;;;;13.10;74.92;101098.44;2103063;28;20068;-78
2022/03/30 00:47:13;;;;;;;10.88;5.00;;;;;;;13.10;74.79;101101.09;2100950;28;20047;-79
2022/03/30 00:48:36;;;;;;;6.28;3.92;;;;;;;13.06;74.73;101101.94;2112193;28;20070;-78
2022/03/30 00:49:57;;;;;;;13.88;4.88;;;;;;;13.00;74.69;101096.56;2114241;28;20044;-79
2022/03/30 00:51:20;;;;;;;10.02;3.42;;;;;;;12.97;74.68;101088.59;2111539;28;20052;-78
2022/03/30 00:52:42;;;;;;;10.27;3.72;;;;;;;12.90;74.67;101086.72;2109731;28;20071;-77
2022/03/30 00:54:05;;;;;;;6.30;3.60;;;;;;;12.84;74.82;101094.63;2101996;28;20050;-79
2022/03/30 00:55:28;;;;;;;9.43;4.05;;;;;;;12.76;74.94;101092.75;2094887;28;20106;-78
2022/03/30 00:56:51;;;;;;;11.15;5.05;;;;;;;12.71;75.08;101089.19;2105575;28;20135;-78
2022/03/30 00:58:16;;;;;;;7.88;3.63;;;;;;;12.69;75.12;101088.25;2103009;28;20044;-79
2022/03/30 00:59:40;;;;;;;6.80;3.45;;;;;;;12.64;75.09;101089.97;2104097;28;20518;-79
2022/03/30 01:01:02;;;;;;;10.18;5.00;;;;;;;12.61;75.11;101092.56;2110382;28;20752;-79
2022/03/30 01:02:24;;;;;;;9.80;4.63;;;;;;;12.58;75.25;101087.25;2117624;27;20459;-79
2022/03/30 01:03:47;;;;;;;8.70;5.05;;;;;;;12.60;75.21;101087.28;2097811;28;20082;-77
2022/03/30 01:05:09;;;;;;;7.65;3.17;;;;;;;12.57;75.31;101088.13;2103011;28;20048;-79
2022/03/30 01:06:32;;;;;;;7.80;3.33;;;;;;;12.54;75.59;101093.34;2108681;28;20096;-78
2022/03/30 01:07:57;;;;;;;8.32;4.07;;;;;;;12.55;75.56;101096.91;2108883;28;20044;-78
2022/03/30 01:09:20;;;;;;;9.55;5.25;;;;;;;12.54;75.65;101101.31;2102084;28;20074;-78
2022/03/30 01:10:43;;;;;;;10.13;4.80;;;;;;;12.56;75.53;101104.88;2108183;28;20047;-79
2022/03/30 01:12:07;;;;;;;9.00;4.07;;;;;;;12.55;75.62;101096.91;2101751;28;20035;-79
2022/03/30 01:13:33;;;;;;;10.85;4.35;;;;;;;12.53;75.51;101090.72;2096435;28;20071;-78
2022/03/30 01:14:54;;;;;;;8.25;3.63;;;;;;;12.51;75.46;101089.78;2115360;27;20047;-79
2022/03/30 01:16:17;;;;;;;10.48;5.07;;;;;;;12.51;75.48;101090.69;2112617;28;20552;-79
2022/03/30 01:17:40;;;;;;;7.63;3.78;;;;;;;12.51;75.53;101085.38;2111127;28;20135;-80
2022/03/30 01:19:06;;;;;;;9.73;4.13;;;;;;;12.50;75.65;101078.31;2111688;28;20051;-78
2022/03/30 01:20:30;;;;;;;10.57;5.40;;;;;;;12.49;75.88;101080.94;2096841;28;20053;-78
2022/03/30 01:21:53;;;;;;;5.05;3.08;;;;;;;12.48;75.99;101069.44;2092845;28;20520;-78
2022/03/30 01:23:15;;;;;;;11.02;4.53;;;;;;;12.44;75.99;101072.94;2101253;28;20123;-80
2022/03/30 01:24:39;;;;;;;7.70;3.35;;;;;;;12.43;76.45;101065.84;2100730;28;20495;-80
2022/03/30 01:26:00;;;;;;;9.80;4.53;;;;;;;12.44;76.53;101059.69;2099143;28;20052;-78
2022/03/30 01:27:22;;;;;;;12.70;4.28;;;;;;;12.46;76.64;101062.38;2094853;28;20057;-79
2022/03/30 01:28:46;;;;;;;8.85;4.07;;;;;;;12.47;76.82;101062.38;2111403;28;20096;-79
2022/03/30 01:33:32;;;;;;;7.60;3.20;;;;;;;12.52;77.32;101055.41;2111786;28;20048;-78
2022/03/30 01:34:56;;;;;;;7.30;3.50;;;;;;;12.55;77.72;101062.47;2105244;28;20048;-78
2022/03/30 01:36:19;;;;;;;6.55;3.38;;;;;;;12.58;77.74;101059.88;2107078;28;20138;-79
2022/03/30 01:37:43;;;;;;;8.55;4.13;;;;;;;12.61;77.79;101063.44;2103544;28;20040;-79
2022/03/30 01:39:05;;;;;;;9.93;4.38;;;;;;;12.61;77.83;101063.44;2108433;28;20047;-78
2022/03/30 01:40:27;;;;;;;8.90;4.70;;;;;;;12.63;77.88;101059.06;2111057;28;20056;-78
2022/03/30 01:41:49;;;;;;;10.80;4.18;;;;;;;12.65;77.80;101067.91;2110857;28;20051;-77
2022/03/30 01:43:11;;;;;;;5.88;4.05;;;;;;;12.66;77.91;101079.41;2102207;28;20043;-78
2022/03/30 01:44:33;;;;;;;9.95;4.47;;;;;;;12.68;77.98;101075.00;2111225;28;20048;-79
2022/03/30 01:45:59;;;;;;;7.07;3.60;;;;;;;12.68;77.95;101067.94;2106167;28;20217;-79
2022/03/30 01:47:20;;;;;;;13.50;3.90;;;;;;;12.67;77.94;101076.75;2102477;28;20054;-79
2022/03/30 01:48:43;;;;;;;9.38;4.55;;;;;;;12.69;77.93;101063.53;2106879;28;20036;-78
2022/03/30 01:50:06;;;;;;;12.20;4.38;;;;;;;12.71;77.90;101072.38;2111116;28;20096;-78
2022/03/30 01:51:29;;;;;;;5.97;3.88;;;;;;;12.69;77.76;101075.00;2102697;28;20081;-78
2022/03/30 01:52:53;;;;;;;7.90;3.95;;;;;;;12.68;77.83;101069.69;2101777;28;20051;-78
2022/03/30 01:54:16;;;;;;;10.80;4.47;;;;;;;12.68;77.95;101073.22;2106082;28;20551;-79
2022/03/30 01:55:39;;;;;;;7.35;4.10;;;;;;;12.67;77.85;101066.16;2100689;28;20423;-78
2022/03/30 01:57:00;;;;;;;6.35;3.55;;;;;;;12.67;77.88;101076.75;2101666;28;20040;-78
2022/03/30 01:58:23;;;;;;;6.93;3.80;;;;;;;12.66;77.83;101080.28;2102375;28;20062;-79
2022/03/30 01:59:48;;;;;;;8.45;3.95;;;;;;;12.65;77.80;101075.88;2096300;28;20135;-79
2022/03/30 02:01:09;;;;;;;10.82;4.22;;;;;;;12.65;77.85;101088.22;2107631;28;20055;-78
2022/03/30 02:02:31;;;;;;;10.32;3.75;;;;;;;12.65;77.83;101082.91;2109365;28;20236;-78
2022/03/30 02:03:56;;;;;;;8.52;4.05;;;;;;;12.65;77.90;101074.97;2097811;28;20052;-78
2022/03/30 02:05:19;;;;;;;8.40;4.30;;;;;;;12.64;77.57;101075.84;2100717;28;20047;-78
2022/03/30 02:06:41;;;;;;;8.35;4.05;;;;;;;12.64;77.77;101078.50;2110312;28;20498;-78
2022/03/30 02:08:04;;;;;;;;;;;;;;;12.64;77.69;101075.84;2101598;28;20051;-78
2022/03/30 02:09:26;;;;;;;7.55;3.60;;;;;;;12.61;77.92;101073.13;2110398;27;19924;-79
2022/03/30 02:10:49;;;;;;;11.40;3.65;;;;;;;12.60;77.87;101072.25;2110191;28;20043;-78
2022/03/30 02:12:11;;;;;;;5.47;3.97;;;;;;;12.61;77.90;101065.19;2110757;28;20144;-78
2022/03/30 02:13:32;;;;;;;11.27;6.07;;;;;;;12.61;77.68;101073.13;2119208;27;20047;-78
2022/03/30 02:14:55;;;;;;;11.18;4.13;;;;;;;12.62;77.78;101073.16;2121362;27;20138;-78
2022/03/30 02:16:16;;;;;;;6.75;3.22;;;;;;;12.62;77.71;101078.47;2108932;28;20634;-78
2022/03/30 02:17:40;;;;;;;11.85;2.90;;;;;;;12.61;77.80;101087.25;2110283;28;20126;-78
2022/03/30 02:19:01;;;;;;;9.60;4.38;;;;;;;12.60;77.72;101082.84;2110978;28;20044;-79
2022/03/30 02:20:24;;;;;;;10.65;5.03;;;;;;;12.59;77.91;101086.38;2110658;28;20050;-79
2022/03/30 02:21:45;;;;;;;12.27;4.72;;;;;;;12.60;77.87;101092.56;2110918;28;20043;-78
2022/03/30 02:23:10;;;;;;;8.73;3.83;;;;;;;12.57;77.80;101088.13;2110795;28;20047;-78
2022/03/30 02:24:32;;;;;;;7.03;3.25;;;;;;;12.56;77.91;101090.72;2110117;27;20036;-78
2022/03/30 02:25:55;;;;;;;5.32;2.75;;;;;;;12.55;77.96;101092.50;2119333;27;20063;-78
2022/03/30 02:27:18;;;;;;;7.43;3.42;;;;;;;12.57;78.01;101090.75;2106567;28;20063;-79
2022/03/30 02:28:40;;;;;;;12.63;5.95;;;;;;;12.56;77.90;101088.97;2094054;28;20086;-78
2022/03/30 02:30:03;;;;;;;11.90;6.35;;;;;;;12.55;77.83;101076.59;2104054;28;20457;-78
2022/03/30 02:31:25;;;;;;;12.52;5.38;;;;;;;12.54;77.80;101084.50;2102929;28;20063;-78
2022/03/30 02:32:47;;;;;;;9.63;4.70;;;;;;;12.51;77.65;101080.09;2110369;28;20075;-78
2022/03/30 02:34:11;;;;;;;7.80;3.85;;;;;;;12.49;77.65;101081.81;2108702;28;20047;-79
2022/03/30 02:35:32;;;;;;;11.07;3.63;;;;;;;12.46;77.69;101091.50;2110796;28;20108;-78
2022/03/30 02:36:55;;;;;;;10.73;5.15;;;;;;;12.42;77.88;101089.66;2119046;27;20066;-79
2022/03/30 02:38:19;;;;;;;8.00;4.63;;;;;;;12.41;77.99;101090.53;2113374;28;20487;-79
2022/03/30 02:39:42;;;;;;;5.72;3.92;;;;;;;12.40;78.06;101086.13;2104015;28;20052;-78
2022/03/30 02:41:05;;;;;;;6.65;3.35;;;;;;;12.41;78.06;101077.28;2101271;28;20077;-79
2022/03/30 02:42:27;;;;;;;8.93;4.47;;;;;;;12.42;78.09;101079.06;2108325;28;20058;-78
2022/03/30 02:43:49;;;;;;;7.95;4.10;;;;;;;12.41;78.05;101082.59;2119088;27;20084;-78
2022/03/30 02:45:11;;;;;;;6.78;3.67;;;;;;;12.41;77.93;101072.88;2105276;28;20062;-78
2022/03/30 02:46:33;;;;;;;8.55;4.03;;;;;;;12.37;77.97;101074.63;2102245;28;20058;-79
2022/03/30 02:49:35;;;;;;;11.38;4.85;;;;;;;12.31;78.00;101081.59;2102032;28;20501;-79
2022/03/30 02:50:58;;;;;;;6.72;2.90;;;;;;;12.31;78.04;101071.00;2102236;28;20044;-79
2022/03/30 02:52:21;;;;;;;9.88;3.40;;;;;;;12.27;77.99;101070.03;2085785;28;20045;-78
2022/03/30 02:53:44;;;;;;;9.98;4.78;;;;;;;12.27;78.02;101082.44;2088712;28;20068;-78
2022/03/30 02:55:07;;;;;;;10.43;4.80;;;;;;;12.26;77.91;101088.59;2110107;27;20419;-78
2022/03/30 02:56:30;;;;;;;13.27;5.05;;;;;;;12.21;77.80;101074.38;2104682;28;20139;-78
2022/03/30 02:57:51;;;;;;;9.20;4.80;;;;;;;12.13;77.60;101083.97;2099727;28;20044;-79
2022/03/30 02:59:15;;;;;;;10.05;4.75;;;;;;;12.06;77.63;101082.13;2106528;28;20051;-78
2022/03/30 03:00:37;;;;;;;10.48;4.68;;;;;;;11.98;77.68;101088.19;2108245;28;20040;-78
2022/03/30 03:02:00;;;;;;;9.77;4.57;;;;;;;12.01;77.76;101086.47;2110449;28;20052;-79
2022/03/30 03:03:21;;;;;;;8.77;4.10;;;;;;;12.03;77.59;101082.06;2110739;28;20551;-79
2022/03/30 03:04:44;;;;;;;11.38;4.78;;;;;;;12.05;77.50;101081.22;2110295;28;20077;-78
2022/03/30 03:06:07;;;;;;;12.63;3.90;;;;;;;12.08;77.43;101085.69;2099693;28;20048;-79
2022/03/30 03:07:30;;;;;;;8.52;3.95;;;;;;;12.12;77.41;101082.19;2108274;28;20139;-79
2022/03/30 03:08:55;;;;;;;8.52;4.97;;;;;;;12.14;77.26;101085.78;2103607;28;20036;-79
2022/03/30 03:10:17;;;;;;;8.73;3.45;;;;;;;12.13;77.20;101081.34;2111098;28;20043;-78
2022/03/30 03:11:39;;;;;;;11.00;5.30;;;;;;;12.13;77.21;101082.22;2101755;28;20044;-78
2022/03/30 03:13:03;;;;;;;10.55;4.97;;;;;;;12.15;77.06;101084.88;2106453;28;20566;-79
2022/03/30 03:14:26;;;;;;;9.57;4.32;;;;;;;12.12;76.97;101090.13;2113095;28;20544;-78
2022/03/30 03:15:48;;;;;;;10.10;4.05;;;;;;;12.12;77.08;101087.50;2102916;28;20047;-77
2022/03/30 03:17:10;;;;;;;9.05;4.20;;;;;;;12.11;77.07;101085.72;2106628;28;20047;-77
2022/03/30 03:18:32;;;;;;;8.02;4.95;;;;;;;12.10;77.03;101084.81;2110367;28;20048;-78
2022/03/30 03:19:55;;;;;;;11.10;4.13;;;;;;;12.12;77.05;101087.50;2101741;28;20044;-77
2022/03/30 03:21:18;;;;;;;9.05;3.75;;;;;;;12.10;77.06;101090.09;2110304;28;20098;-79
2022/03/30 03:22:39;;;;;;;8.05;4.78;;;;;;;12.12;77.08;101082.19;2099470;28;20040;-78
2022/03/30 03:24:04;;;;;;;10.77;4.28;;;;;;;12.11;77.08;101083.06;2110023;28;20039;-78
2022/03/30 03:25:29;;;;;;;9.10;3.70;;;;;;;12.11;77.05;101085.72;2111702;28;20043;-78
2022/03/30 03:26:52;;;;;;;11.98;4.70;;;;;;;12.11;77.15;101075.13;2110119;28;20543;-78
2022/03/30 03:28:15;;;;;;;8.98;4.85;;;;;;;12.12;77.10;101092.78;2106475;28;20039;-78
2022/03/30 03:29:37;;;;;;;11.52;4.95;;;;;;;12.12;77.05;101106.00;2111378;28;20610;-78
2022/03/30 03:30:59;;;;;;;8.18;4.38;;;;;;;12.12;77.08;101106.00;2101861;28;20134;-78
2022/03/30 03:32:22;;;;;;;10.25;5.15;;;;;;;12.14;77.01;101113.09;2093806;28;20037;-78
2022/03/30 03:33:43;;;;;;;12.20;4.95;;;;;;;12.16;77.09;101113.13;2107555;28;20048;-78
2022/03/30 03:35:07;;;;;;;11.80;4.63;;;;;;;12.15;76.98;101109.59;2096276;28;20098;-78
2022/03/30 03:36:30;;;;;;;10.15;4.28;;;;;;;12.16;77.14;101116.66;2108074;28;20532;-78
2022/03/30 03:37:51;;;;;;;12.07;4.55;;;;;;;12.15;77.12;101120.16;2096244;28;20048;-78
2022/03/30 03:39:16;;;;;;;12.15;5.60;;;;;;;12.13;77.04;101124.56;2101289;28;20054;-78
2022/03/30 03:40:40;;;;;;;12.20;6.80;;;;;;;12.09;77.04;101127.13;2107913;28;20059;-78
2022/03/30 03:42:02;;;;;;;19.65;9.63;;;;;;;12.07;77.24;101121.84;2101547;28;20547;-78
2022/03/30 03:43:25;;;;;;;12.63;5.55;;;;;;;12.08;77.10;101120.94;2110363;28;20048;-78
2022/03/30 03:44:46;;;;;;;10.02;4.47;;;;;;;12.08;77.15;101120.94;2112979;28;20051;-78
2022/03/30 03:46:09;;;;;;;10.30;4.55;;;;;;;12.10;77.13;101121.88;2099771;28;20052;-78
2022/03/30 03:47:31;;;;;;;13.02;4.93;;;;;;;12.09;76.97;101122.72;2105756;28;20672;-78
2022/03/30 03:48:54;;;;;;;9.93;4.15;;;;;;;12.09;77.04;101117.44;2102425;28;20055;-78
2022/03/30 03:50:15;;;;;;;11.90;6.97;;;;;;;12.09;77.14;101119.19;2111918;28;20040;-79
2022/03/30 03:51:38;;;;;;;10.57;5.70;;;;;;;12.08;77.07;101120.94;2109070;28;20044;-78
2022/03/30 03:53:01;;;;;;;11.80;5.82;;;;;;;12.07;77.12;101119.19;2118515;28;20443;-77
2022/03/30 03:54:25;;;;;;;11.13;4.78;;;;;;;12.08;77.04;101120.09;2104341;28;20056;-78
2022/03/30 03:55:48;;;;;;;9.38;5.45;;;;;;;12.05;77.17;101127.97;2112859;28;20063;-78
2022/03/30 03:57:11;;;;;;;15.00;5.35;;;;;;;12.05;77.15;101128.84;2111533;28;20044;-78
2022/03/30 03:58:33;;;;;;;9.88;5.18;;;;;;;12.04;77.13;101127.06;2112961;28;20032;-78
2022/03/30 03:59:55;;;;;;;13.27;3.55;;;;;;;12.05;77.07;101130.59;2110766;28;20131;-78
2022/03/30 04:01:17;;;;;;;7.50;4.13;;;;;;;12.03;77.08;101135.88;2103887;28;20062;-78
2022/03/30 04:02:39;;;;;;;9.80;4.40;;;;;;;12.03;77.06;101135.88;2107755;28;20043;-78
2022/03/30 04:04:02;;;;;;;7.65;3.90;;;;;;;12.03;77.05;101133.22;2110516;28;20040;-78
2022/03/30 04:05:25;;;;;;;14.10;5.22;;;;;;;12.03;77.03;101135.88;2108450;28;20063;-78
2022/03/30 04:06:48;;;;;;;12.10;5.25;;;;;;;12.03;77.10;101129.69;2116651;28;20046;-78
2022/03/30 04:08:11;;;;;;;11.48;4.57;;;;;;;12.03;77.03;101133.22;2101163;28;20827;-78
2022/03/30 04:09:36;;;;;;;8.20;4.72;;;;;;;12.04;77.05;101135.00;2091986;28;20040;-78
2022/03/30 04:10:59;;;;;;;11.45;6.00;;;;;;;12.03;77.04;101135.88;2108092;28;20058;-78
2022/03/30 04:12:20;;;;;;;10.63;4.85;;;;;;;12.04;77.04;101142.06;2101139;28;20420;-78
2022/03/30 04:13:42;;;;;;;8.48;4.57;;;;;;;12.04;77.09;101139.41;2106890;28;20362;-78
2022/03/30 04:15:07;;;;;;;7.88;4.20;;;;;;;12.04;76.96;101140.28;2110389;28;20052;-77
2022/03/30 04:16:29;;;;;;;9.23;4.88;;;;;;;12.03;77.05;101140.25;2109912;28;20583;-78
2022/03/30 04:17:54;;;;;;;10.60;4.88;;;;;;;12.04;77.03;101142.06;2112907;28;20044;-77
2022/03/30 04:19:15;;;;;;;10.80;5.43;;;;;;;12.06;77.10;101143.88;2102568;28;20035;-79
2022/03/30 04:20:38;;;;;;;13.43;5.25;;;;;;;12.06;76.95;101150.91;2093335;28;20058;-78
2022/03/30 04:22:01;;;;;;;13.13;5.05;;;;;;;12.08;76.88;101146.53;2098818;28;20085;-78
2022/03/30 04:23:23;;;;;;;8.07;4.13;;;;;;;12.09;76.85;101146.53;2108482;28;20071;-78
2022/03/30 04:24:48;;;;;;;10.20;4.43;;;;;;;12.11;76.82;101152.75;2102474;28;20098;-77
2022/03/30 04:26:10;;;;;;;11.75;5.68;;;;;;;12.12;76.88;101145.72;2106034;28;20079;-77
2022/03/30 04:27:32;;;;;;;13.32;4.57;;;;;;;12.14;76.96;101151.94;2109246;28;20108;-77
2022/03/30 04:28:54;;;;;;;7.53;4.00;;;;;;;12.17;76.90;101150.22;2102506;28;20040;-78
2022/03/30 04:30:18;;;;;;;8.68;4.60;;;;;;;12.20;76.90;101155.56;2105686;28;20040;-78
2022/03/30 04:31:40;;;;;;;10.50;4.65;;;;;;;12.24;76.97;101152.06;2107711;28;20523;-78
2022/03/30 04:33:03;;;;;;;11.90;4.95;;;;;;;12.30;76.81;101156.56;2105758;28;20446;-78
2022/03/30 04:34:25;;;;;;;12.23;5.05;;;;;;;12.35;77.02;101153.13;2108953;28;20043;-78
2022/03/30 04:35:48;;;;;;;9.75;5.32;;;;;;;12.41;76.92;101162.91;2110616;28;20134;-78
2022/03/30 04:37:11;;;;;;;14.40;4.00;;;;;;;12.46;76.95;101155.94;2111014;27;20040;-78
2022/03/30 04:38:34;;;;;;;11.57;5.60;;;;;;;12.54;77.07;101174.56;2097490;28;20072;-78
2022/03/30 04:39:58;;;;;;;16.17;5.45;;;;;;;12.61;76.84;101181.72;2109464;28;20131;-78
2022/03/30 04:41:22;;;;;;;12.75;5.38;;;;;;;12.67;76.87;101179.16;2103473;28;20140;-78
2022/03/30 04:42:45;;;;;;;11.73;5.13;;;;;;;12.73;76.81;101185.44;2105928;28;20096;-77
2022/03/30 04:44:06;;;;;;;10.27;4.45;;;;;;;12.82;76.79;101184.66;2102001;28;20048;-78
2022/03/30 04:45:29;;;;;;;7.63;3.80;;;;;;;12.90;76.73;101195.38;2110254;27;20471;-77
2022/03/30 04:46:52;;;;;;;10.20;5.00;;;;;;;12.96;76.67;101192.81;2126045;27;20038;-78
2022/03/30 04:48:14;;;;;;;7.72;3.97;;;;;;;13.02;76.63;101192.88;2114362;28;20047;-78
2022/03/30 04:49:36;;;;;;;9.43;4.05;;;;;;;13.05;76.47;101188.53;2110192;28;20132;-78
2022/03/30 04:51:00;;;;;;;9.80;4.82;;;;;;;13.09;76.44;101187.66;2102693;28;20108;-78
2022/03/30 04:52:21;;;;;;;13.02;4.60;;;;;;;13.17;76.39;101179.84;2105624;28;21100;-77
2022/03/30 04:53:44;;;;;;;8.57;3.88;;;;;;;13.25;76.37;101182.59;2111214;28;20120;-78
2022/03/30 04:55:10;;;;;;;8.98;3.78;;;;;;;13.31;76.21;101188.84;2109947;28;20109;-78
2022/03/30 04:56:33;;;;;;;6.20;2.88;;;;;;;13.34;76.13;101191.53;2111194;28;20543;-78
2022/03/30 04:57:56;;;;;;;9.38;5.38;;;;;;;13.41;76.05;101197.78;2102950;28;20044;-78
2022/03/30 04:59:18;;;;;;;15.30;4.93;;;;;;;13.52;76.13;101198.81;2108040;28;20047;-77
2022/03/30 05:00:41;;;;;;;9.13;5.30;;;;;;;13.65;76.21;101194.53;2101116;28;20127;-79
2022/03/30 05:02:04;;;;;;;13.98;3.42;;;;;;;13.78;76.05;101192.00;2099416;28;20047;-78
2022/03/30 05:03:27;;;;;;;13.18;5.18;;;;;;;13.90;76.00;101194.78;2111096;28;20048;-78
2022/03/30 05:04:50;;;;;;;6.85;3.95;;;;;;;14.03;75.90;101192.22;2102361;28;20032;-79
2022/03/30 05:06:11;;;;;;;7.72;3.97;;;;;;;14.16;75.80;101191.44;2102302;28;20052;-78
2022/03/30 05:07:34;;;;;;;9.82;4.70;;;;;;;14.25;75.81;101187.06;2106279;28;20044;-78
2022/03/30 05:08:57;;;;;;;13.32;4.50;;;;;;;14.32;75.70;101195.97;2094782;28;20045;-78
2022/03/30 05:10:21;;;;;;;9.05;4.70;;;;;;;14.38;75.82;101203.13;2106581;27;20130;-78
2022/03/30 05:11:44;;;;;;;14.15;7.00;;;;;;;14.36;75.72;101195.13;2112112;28;20043;-78
2022/03/30 05:13:06;;;;;;;12.85;7.20;;;;;;;14.33;75.71;101198.66;2097460;28;20044;-78
2022/03/30 05:14:28;;;;;;;12.07;6.05;;;;;;;14.23;75.58;101199.47;2108455;28;20051;-77
2022/03/30 05:15:51;;;;;;;13.00;6.53;;;;;;;14.12;75.69;101197.56;2110599;28;20042;-78
2022/03/30 05:17:13;;;;;;;11.20;6.35;;;;;;;14.02;75.68;101199.28;2107037;27;20044;-78
2022/03/30 05:18:36;;;;;;;13.10;6.25;;;;;;;13.99;75.87;101196.59;2111080;28;20071;-77
2022/03/30 05:19:58;;;;;;;14.23;6.40;;;;;;;14.02;76.08;101190.44;2111124;28;20771;-76
2022/03/30 05:21:20;;;;;;;16.77;6.30;;;;;;;14.13;76.14;101184.31;2113977;28;20447;-78
2022/03/30 05:22:43;;;;;;;16.27;6.25;;;;;;;14.30;76.01;101195.97;2110599;28;20206;-78
2022/03/30 05:24:06;;;;;;;10.80;5.30;;;;;;;14.51;75.94;101197.91;2093581;28;20032;-77
2022/03/30 05:25:30;;;;;;;14.80;5.93;;;;;;;14.74;75.64;101185.66;2106668;28;20035;-77
2022/03/30 05:26:53;;;;;;;9.65;4.43;;;;;;;14.96;75.37;101196.41;2104509;28;20406;-77
2022/03/30 05:28:16;;;;;;;9.27;4.53;;;;;;;15.17;75.13;101199.13;2100127;28;20805;-78
2022/03/30 05:29:39;;;;;;;13.98;5.70;;;;;;;15.42;75.01;101197.47;2111471;28;20099;-77
2022/03/30 05:31:01;;;;;;;11.45;6.40;;;;;;;15.64;74.84;101185.09;2101407;28;20052;-78
2022/03/30 05:32:23;;;;;;;11.82;5.45;;;;;;;15.87;74.59;101194.03;2107018;28;20101;-77
2022/03/30 05:33:46;;;;;;;8.63;5.80;;;;;;;16.05;74.31;101191.38;2111439;28;20515;-78
2022/03/30 05:35:08;;;;;;;12.73;6.50;;;;;;;16.29;73.90;101195.78;2105942;28;20116;-78
2022/03/30 05:36:31;;;;;;;10.70;4.55;;;;;;;16.48;73.36;101192.22;2102682;28;20139;-78
2022/03/30 05:37:53;;;;;;;14.52;5.95;;;;;;;16.67;72.73;101195.78;2099826;28;20127;-78
2022/03/30 05:39:16;;;;;;;7.90;4.90;;;;;;;16.86;72.41;101191.28;2108257;28;20096;-78
2022/03/30 05:40:40;;;;;;;11.77;5.28;;;;;;;16.99;71.67;101190.34;2105018;28;20052;-78
2022/03/30 05:42:02;;;;;;;10.70;5.38;;;;;;;17.00;71.44;101182.31;2111072;27;20134;-78
2022/03/30 05:43:25;;;;;;;15.73;7.05;;;;;;;17.00;71.02;101190.31;2119347;27;20051;-79
2022/03/30 05:44:48;;;;;;;19.77;7.80;;;;;;;16.98;70.58;101193.91;2113683;27;20039;-79
2022/03/30 05:46:11;;;;;;;20.20;7.75;;;;;;;17.03;70.31;101193.00;2102724;28;20451;-79
2022/03/30 05:47:33;;;;;;;18.42;8.13;;;;;;;17.05;69.82;101198.31;2107036;28;20483;-78
2022/03/30 05:48:56;;;;;;;18.75;8.50;;;;;;;17.00;69.39;101195.66;2102661;28;20579;-78
2022/03/30 05:50:21;;;;;;;23.17;8.82;;;;;;;16.94;68.98;101189.44;2102166;28;20066;-78
2022/03/30 05:51:45;;;;;;;17.17;8.15;;;;;;;16.92;69.12;101205.50;2100146;28;20076;-77
2022/03/30 05:53:08;;;;;;;18.75;7.57;;;;;;;16.93;69.04;101201.03;2097021;28;20044;-78
2022/03/30 05:54:31;;;;;;;15.45;7.97;;;;;;;16.92;68.64;101204.59;2108109;28;20048;-77
2022/03/30 05:55:56;;;;;;;21.73;9.25;;;;;;;16.96;68.80;101198.34;2096502;28;20093;-78
2022/03/30 05:57:18;;;;;;;24.23;10.07;;;;;;;17.04;68.55;101193.88;2111060;28;20042;-78
2022/03/30 05:58:41;;;;;;;27.25;11.43;;;;;;;17.29;68.27;101200.88;2113709;28;20106;-78
2022/03/30 06:00:06;;;;;;;30.85;13.15;;;;;;;17.54;67.95;101202.50;2102736;28;20044;-78
2022/03/30 06:01:36;;;;;;;23.75;10.05;;;;;;;17.89;66.99;101202.31;2109361;28;20142;-79
2022/03/30 06:02:59;;;;;;;17.90;7.68;;;;;;;18.16;65.76;101203.00;2101629;28;20198;-79
2022/03/30 06:04:21;;;;;;;17.17;5.90;;;;;;;18.38;64.79;101199.22;2107597;28;20054;-78
2022/03/30 06:05:44;;;;;;;25.15;8.68;;;;;;;18.52;63.69;101210.69;2110843;28;20051;-79
2022/03/30 06:07:05;;;;;;;14.63;6.50;;;;;;;18.46;62.71;101208.06;2112254;28;20482;-78
2022/03/30 06:08:28;;;;;;;14.75;6.82;;;;;;;18.36;63.06;101214.41;2101788;28;20171;-79
2022/03/30 06:09:51;;;;;;;16.52;7.43;;;;;;;18.15;62.98;101215.47;2104948;28;20059;-78
2022/03/30 06:11:15;;;;;;;17.08;8.30;;;;;;;17.88;63.28;101211.22;2108493;28;20031;-78
2022/03/30 06:12:38;;;;;;;16.17;6.88;;;;;;;17.63;63.68;101217.63;2125370;27;20432;-79
2022/03/30 06:14:00;;;;;;;14.13;6.65;;;;;;;17.52;64.00;101209.63;2101400;28;20093;-79
2022/03/30 06:15:23;;;;;;;13.68;5.35;;;;;;;17.58;63.99;101213.19;2096052;28;20055;-79
2022/03/30 06:16:46;;;;;;;14.25;5.72;;;;;;;17.76;63.69;101218.44;2109409;27;20051;-79
2022/03/30 06:18:12;;;;;;;13.48;5.35;;;;;;;17.99;63.60;101223.59;2104218;28;20460;-79
2022/03/30 06:19:35;;;;;;;13.25;5.60;;;;;;;18.24;63.30;101218.09;2108223;28;20097;-79
2022/03/30 06:20:58;;;;;;;10.07;5.75;;;;;;;18.52;62.81;101223.16;2104874;28;20044;-79
2022/03/30 06:22:23;;;;;;;18.00;6.50;;;;;;;18.78;62.28;101222.94;2109722;28;20031;-80
2022/03/30 06:23:46;;;;;;;13.27;6.35;;;;;;;19.00;61.96;101229.81;2110977;28;20040;-78
2022/03/30 06:25:09;;;;;;;14.13;5.63;;;;;;;19.15;61.50;101226.97;2101636;28;20579;-79
2022/03/30 06:26:34;;;;;;;11.15;4.82;;;;;;;19.35;61.47;101232.09;2107230;28;20090;-79
2022/03/30 06:27:57;;;;;;;10.68;5.28;;;;;;;19.56;61.23;101228.28;2098576;28;20123;-78